Time;durP1;ratioP1;P1;durP2;ratioP2;P2;SDS_P1;SDS_P2;PMS_P1;PMS_P2;Temp;Humidity;BMP_temperature;BMP_pressure;BME280_temperature;BME280_humidity;BME280_pressure;Samples;Min_cycle;Max_cycle;Signal;HPM_P1;HPM_P2
2022/06/24 00:02:02;;;;;;;;;;;24.40;92.90;;;;;;4918405;29;20452;-45
2022/06/24 00:04:29;;;;;;;;;;;24.40;93.40;;;;;;4916903;29;19925;-48
2022/06/24 00:06:56;;;;;;;;;;;24.30;92.20;;;;;;4916088;29;20380;-47
2022/06/24 00:09:22;;;;;;;;;;;24.20;92.10;;;;;;4913127;29;19934;-45
2022/06/24 00:12:00;;;;;;;;;;;24.20;92.40;;;;;;4913123;29;19919;-45
2022/06/24 00:14:25;;;;;;;;;;;24.10;90.90;;;;;;4912996;29;20295;-48
2022/06/24 00:16:51;;;;;;;;;;;24.10;91.90;;;;;;4916638;29;20022;-46
2022/06/24 00:19:17;;;;;;;;;;;24.00;93.20;;;;;;4927132;29;19923;-48
2022/06/24 00:21:42;;;;;;;;;;;24.00;92.90;;;;;;4931070;29;19941;-47
2022/06/24 00:24:20;;;;;;;;;;;24.00;93.30;;;;;;4936880;29;19989;-48
2022/06/24 00:26:46;;;;;;;;;;;23.90;93.80;;;;;;4932102;29;19969;-47
2022/06/24 00:29:18;;;;;;;;;;;23.90;92.30;;;;;;4939134;29;20335;-48
2022/06/24 00:32:19;;;;;;;;;;;23.90;92.50;;;;;;4934397;29;20363;-47
2022/06/24 00:34:45;;;;;;;;;;;23.80;93.30;;;;;;4888830;29;19923;-49
2022/06/24 00:37:29;;;;;;;;;;;23.80;93.90;;;;;;4921558;29;19923;-46
2022/06/24 00:39:56;;;;;;;;;;;23.80;94.40;;;;;;4929040;29;19930;-48
2022/06/24 00:42:22;;;;;;;;;;;23.70;93.00;;;;;;4936466;29;19934;-45
2022/06/24 00:45:06;;;;;;;;;;;23.70;93.90;;;;;;4936316;29;19918;-47
2022/06/24 00:47:32;;;;;;;;;;;23.70;94.30;;;;;;4930440;29;19934;-46
2022/06/24 00:50:00;;;;;;;;;;;23.70;94.00;;;;;;4926009;29;19923;-48
2022/06/24 00:52:25;;;;;;;;;;;23.60;94.10;;;;;;4935068;29;19923;-52
2022/06/24 00:54:51;;;;;;;;;;;23.60;94.20;;;;;;4933964;29;19949;-47
2022/06/24 00:57:17;;;;;;;;;;;23.60;93.90;;;;;;4933352;29;19923;-47
2022/06/24 00:59:42;;;;;;;;;;;23.60;93.60;;;;;;4930977;29;20002;-50
2022/06/24 01:02:08;;;;;;;;;;;23.50;94.00;;;;;;4931642;29;20307;-50
2022/06/24 01:04:34;;;;;;;;;;;23.60;94.20;;;;;;4917242;29;19934;-48
2022/06/24 01:07:00;;;;;;;;;;;23.50;93.20;;;;;;4935814;29;20484;-45
2022/06/24 01:09:25;;;;;;;;;;;23.50;93.70;;;;;;4933018;29;20434;-49
2022/06/24 01:11:51;;;;;;;;;;;23.50;93.80;;;;;;4932930;29;19981;-44
2022/06/24 01:14:17;;;;;;;;;;;23.50;93.80;;;;;;4932111;29;19926;-47
2022/06/24 01:16:43;;;;;;;;;;;23.50;93.00;;;;;;4934051;29;19962;-46
2022/06/24 01:19:10;;;;;;;;;;;23.50;93.70;;;;;;4931211;29;19998;-50
2022/06/24 01:21:36;;;;;;;;;;;23.50;94.50;;;;;;4930463;29;19922;-49
2022/06/24 01:24:05;;;;;;;;;;;23.40;95.50;;;;;;4932390;29;19926;-49
2022/06/24 01:26:31;;;;;;;;;;;23.10;95.80;;;;;;4927182;29;19982;-49
2022/06/24 01:28:57;;;;;;;;;;;22.90;97.90;;;;;;4933745;29;19966;-45
2022/06/24 01:31:22;;;;;;;;;;;22.60;99.50;;;;;;4930530;29;19919;-49
2022/06/24 01:33:48;;;;;;;;;;;22.40;99.90;;;;;;4930715;29;19919;-49
2022/06/24 01:36:13;;;;;;;;;;;22.40;99.70;;;;;;4932703;29;20021;-47
2022/06/24 01:38:39;;;;;;;;;;;22.30;99.60;;;;;;4921071;29;21745;-50
2022/06/24 01:41:04;;;;;;;;;;;22.40;99.80;;;;;;4930387;29;19930;-48
2022/06/24 01:43:30;;;;;;;;;;;22.50;99.90;;;;;;4933213;29;19930;-50
2022/06/24 01:45:56;;;;;;;;;;;22.50;99.90;;;;;;4934733;29;19923;-47
2022/06/24 01:48:21;;;;;;;;;;;22.40;99.90;;;;;;4939053;29;19933;-47
2022/06/24 01:50:47;;;;;;;;;;;22.40;99.90;;;;;;4934677;29;19923;-49
2022/06/24 01:53:12;;;;;;;;;;;22.40;99.90;;;;;;4933836;29;19919;-48
2022/06/24 01:55:38;;;;;;;;;;;22.40;99.90;;;;;;4931226;29;19918;-48
2022/06/24 01:58:04;;;;;;;;;;;22.40;99.00;;;;;;4937003;29;20017;-48
2022/06/24 02:00:30;;;;;;;;;;;22.40;99.90;;;;;;4936661;29;19922;-49
2022/06/24 02:02:56;;;;;;;;;;;22.40;99.90;;;;;;4938600;29;19930;-47
2022/06/24 02:05:24;;;;;;;;;;;22.40;99.90;;;;;;4934608;29;19927;-50
2022/06/24 02:07:49;;;;;;;;;;;22.40;99.90;;;;;;4936214;29;19919;-51
2022/06/24 02:15:43;;;;;;;;;;;22.40;99.90;;;;;;4938291;29;19918;-51
2022/06/24 02:18:09;;;;;;;;;;;22.40;99.90;;;;;;4936029;29;19929;-51
2022/06/24 02:20:34;;;;;;;;;;;22.50;99.90;;;;;;4936111;29;19925;-49
2022/06/24 02:23:00;;;;;;;;;;;22.40;99.90;;;;;;4936678;29;19994;-46
2022/06/24 02:25:25;;;;;;;;;;;22.40;99.90;;;;;;4935305;29;19985;-49
2022/06/24 02:27:51;;;;;;;;;;;22.40;99.90;;;;;;4935297;29;19918;-50
2022/06/24 02:30:16;;;;;;;;;;;22.40;99.90;;;;;;4937362;29;19922;-48
2022/06/24 02:32:42;;;;;;;;;;;22.30;99.90;;;;;;4938205;29;20013;-49
2022/06/24 02:35:07;;;;;;;;;;;22.30;99.90;;;;;;4932035;29;19918;-49
2022/06/24 02:37:33;;;;;;;;;;;22.40;99.90;;;;;;4934437;29;19919;-49
2022/06/24 02:40:45;;;;;;;;;;;22.40;99.90;;;;;;4935347;29;19946;-47
2022/06/24 02:42:44;;;;;;;;;;;22.40;99.90;;;;;;4934932;29;19922;-49
2022/06/24 02:45:10;;;;;;;;;;;22.40;99.90;;;;;;4935701;29;20426;-48
2022/06/24 02:47:35;;;;;;;;;;;22.50;99.90;;;;;;4933140;29;19926;-50
2022/06/24 02:50:01;;;;;;;;;;;22.50;99.90;;;;;;4936197;29;19934;-45
2022/06/24 02:52:26;;;;;;;;;;;22.30;99.90;;;;;;4931737;29;20379;-46
2022/06/24 02:54:52;;;;;;;;;;;22.10;99.90;;;;;;4932128;29;20391;-51
2022/06/24 02:57:17;;;;;;;;;;;21.90;99.90;;;;;;4935705;29;20350;-46
2022/06/24 02:59:43;;;;;;;;;;;21.70;99.90;;;;;;4933974;29;20375;-47
2022/06/24 03:02:09;;;;;;;;;;;21.60;99.90;;;;;;4938604;29;20009;-47
2022/06/24 03:04:34;;;;;;;;;;;21.50;99.90;;;;;;4929918;29;20406;-51
2022/06/24 03:07:00;;;;;;;;;;;21.50;99.90;;;;;;4933933;29;19927;-48
2022/06/24 03:09:25;;;;;;;;;;;21.40;99.90;;;;;;4933521;29;19922;-48
2022/06/24 03:11:51;;;;;;;;;;;21.40;99.90;;;;;;4930805;29;20336;-48
2022/06/24 03:14:16;;;;;;;;;;;21.30;99.90;;;;;;4929293;29;19997;-48
2022/06/24 03:16:42;;;;;;;;;;;21.30;99.90;;;;;;4937884;29;19927;-50
2022/06/24 03:19:07;;;;;;;;;;;21.20;99.90;;;;;;4934821;29;19923;-49
2022/06/24 03:21:33;;;;;;;;;;;21.20;99.90;;;;;;4930834;29;19926;-47
2022/06/24 03:23:58;;;;;;;;;;;21.20;99.90;;;;;;4932670;29;19918;-51
2022/06/24 03:26:24;;;;;;;;;;;21.10;99.90;;;;;;4937379;29;19922;-47
2022/06/24 03:28:49;;;;;;;;;;;21.10;99.90;;;;;;4930731;29;20067;-50
2022/06/24 03:31:15;;;;;;;;;;;21.00;99.90;;;;;;4932652;29;19939;-51
2022/06/24 03:33:40;;;;;;;;;;;20.90;99.90;;;;;;4933137;29;19923;-50
2022/06/24 03:36:10;;;;;;;;;;;20.80;99.90;;;;;;4936835;29;19991;-48
2022/06/24 03:38:35;;;;;;;;;;;20.70;99.90;;;;;;4934887;29;19933;-51
2022/06/24 03:41:01;;;;;;;;;;;20.60;99.90;;;;;;4935488;29;19930;-44
2022/06/24 03:43:26;;;;;;;;;;;20.50;99.90;;;;;;4936103;29;20368;-46
2022/06/24 03:46:02;;;;;;;;;;;20.50;99.90;;;;;;4931880;29;20385;-49
2022/06/24 03:48:28;;;;;;;;;;;20.40;99.90;;;;;;4937572;29;20076;-50
2022/06/24 03:50:53;;;;;;;;;;;20.30;99.90;;;;;;4940162;29;19923;-48
2022/06/24 03:53:19;;;;;;;;;;;20.30;99.90;;;;;;4933494;29;20025;-45
2022/06/24 03:55:48;;;;;;;;;;;20.30;99.90;;;;;;4938761;29;20005;-49
2022/06/24 03:58:14;;;;;;;;;;;20.20;99.90;;;;;;4937168;29;20431;-46
2022/06/24 04:00:39;;;;;;;;;;;20.10;99.90;;;;;;4935030;29;20045;-52
2022/06/24 04:03:05;;;;;;;;;;;20.10;99.90;;;;;;4932052;29;19918;-45
2022/06/24 04:05:30;;;;;;;;;;;20.10;99.90;;;;;;4931761;29;19973;-47
2022/06/24 04:07:56;;;;;;;;;;;20.00;99.90;;;;;;4932614;29;19923;-49
2022/06/24 04:10:22;;;;;;;;;;;20.00;99.90;;;;;;4932836;29;19923;-48
2022/06/24 04:12:47;;;;;;;;;;;19.90;99.90;;;;;;4928352;29;20343;-45
2022/06/24 04:15:13;;;;;;;;;;;19.90;99.90;;;;;;4930803;29;19954;-47
2022/06/24 04:17:39;;;;;;;;;;;19.90;99.90;;;;;;4935570;29;19926;-45
2022/06/24 04:20:05;;;;;;;;;;;19.80;99.90;;;;;;4932562;29;19950;-47
2022/06/24 04:22:30;;;;;;;;;;;19.80;99.90;;;;;;4930840;29;19925;-44
2022/06/24 04:24:56;;;;;;;;;;;19.90;99.90;;;;;;4939395;29;19922;-46
2022/06/24 04:27:22;;;;;;;;;;;19.90;99.90;;;;;;4932449;29;19950;-45
2022/06/24 04:29:47;;;;;;;;;;;19.90;99.90;;;;;;4931902;29;19927;-48
2022/06/24 04:32:13;;;;;;;;;;;20.00;99.90;;;;;;4934442;29;19957;-47
2022/06/24 04:34:38;;;;;;;;;;;20.00;99.90;;;;;;4935729;29;20401;-44
2022/06/24 04:37:04;;;;;;;;;;;20.00;99.90;;;;;;4931287;29;20455;-50
2022/06/24 04:39:30;;;;;;;;;;;20.10;99.90;;;;;;4932859;29;19930;-44
2022/06/24 04:41:55;;;;;;;;;;;20.20;99.90;;;;;;4930294;29;19919;-46
2022/06/24 04:44:21;;;;;;;;;;;20.20;99.90;;;;;;4933007;29;20273;-47
2022/06/24 04:46:47;;;;;;;;;;;20.30;99.90;;;;;;4931653;29;19970;-43
2022/06/24 04:49:12;;;;;;;;;;;20.30;99.90;;;;;;4916047;29;19926;-49
2022/06/24 04:51:38;;;;;;;;;;;20.30;99.90;;;;;;4936500;29;19946;-45
2022/06/24 04:54:04;;;;;;;;;;;20.30;99.90;;;;;;4953835;28;19918;-46
2022/06/24 04:56:29;;;;;;;;;;;20.40;99.90;;;;;;4931942;29;19923;-48
2022/06/24 04:58:55;;;;;;;;;;;20.40;99.90;;;;;;4930650;29;19927;-45
2022/06/24 05:01:21;;;;;;;;;;;20.40;99.90;;;;;;4934083;29;20049;-43
2022/06/24 05:03:46;;;;;;;;;;;20.50;99.90;;;;;;4938777;29;20443;-45
2022/06/24 05:06:12;;;;;;;;;;;20.60;99.90;;;;;;4919640;29;19934;-45
2022/06/24 05:08:37;;;;;;;;;;;20.60;99.90;;;;;;4936449;29;19922;-44
2022/06/24 05:11:04;;;;;;;;;;;20.60;99.90;;;;;;4916857;29;20296;-43
2022/06/24 05:13:30;;;;;;;;;;;20.60;99.90;;;;;;4931475;29;19999;-44
2022/06/24 05:15:58;;;;;;;;;;;20.70;99.90;;;;;;4933446;29;19989;-45
2022/06/24 05:18:23;;;;;;;;;;;20.70;99.90;;;;;;4931704;29;19974;-45
2022/06/24 05:20:49;;;;;;;;;;;20.70;99.90;;;;;;4940104;29;19962;-46
2022/06/24 05:23:14;;;;;;;;;;;20.70;99.90;;;;;;4935930;29;19999;-46
2022/06/24 05:25:40;;;;;;;;;;;20.70;99.90;;;;;;4934337;29;19918;-44
2022/06/24 05:28:06;;;;;;;;;;;20.60;99.90;;;;;;4935100;29;20284;-44
2022/06/24 05:30:31;;;;;;;;;;;20.60;99.90;;;;;;4936460;29;19993;-46
2022/06/24 05:32:57;;;;;;;;;;;20.50;99.90;;;;;;4934377;29;20453;-43
2022/06/24 05:35:22;;;;;;;;;;;20.50;99.90;;;;;;4932577;29;19926;-44
2022/06/24 05:37:48;;;;;;;;;;;20.40;99.90;;;;;;4917943;29;20176;-44
2022/06/24 05:40:13;;;;;;;;;;;20.40;99.90;;;;;;4936021;29;19974;-45
2022/06/24 05:42:39;;;;;;;;;;;20.60;99.90;;;;;;4934752;29;19974;-42
2022/06/24 05:45:05;;;;;;;;;;;20.90;99.90;;;;;;4919250;29;19988;-44
2022/06/24 05:47:33;;;;;;;;;;;21.30;99.90;;;;;;4933993;29;19919;-47
2022/06/24 05:49:59;;;;;;;;;;;21.60;99.90;;;;;;4934328;29;20319;-44
2022/06/24 05:55:08;;;;;;;;;;;22.00;99.90;;;;;;4934731;29;19966;-43
2022/06/24 05:57:34;;;;;;;;;;;22.00;99.90;;;;;;4935189;29;20025;-44
2022/06/24 05:59:59;;;;;;;;;;;22.10;99.90;;;;;;4936360;29;20294;-47
2022/06/24 06:02:25;;;;;;;;;;;22.20;99.90;;;;;;4939707;29;19985;-47
2022/06/24 06:04:51;;;;;;;;;;;22.30;99.90;;;;;;4935799;29;19919;-45
2022/06/24 06:07:16;;;;;;;;;;;22.30;99.90;;;;;;4932097;29;19927;-44
2022/06/24 06:09:42;;;;;;;;;;;22.30;99.90;;;;;;4931713;29;19923;-45
2022/06/24 06:12:07;;;;;;;;;;;22.20;99.90;;;;;;4933581;29;19973;-43
2022/06/24 06:14:33;;;;;;;;;;;22.30;99.90;;;;;;4913176;29;19918;-45
2022/06/24 06:16:58;;;;;;;;;;;22.40;99.90;;;;;;4937469;29;20363;-46
2022/06/24 06:19:24;;;;;;;;;;;22.50;99.90;;;;;;4934407;29;20362;-44
2022/06/24 06:21:50;;;;;;;;;;;22.50;99.90;;;;;;4918206;29;20392;-43
2022/06/24 06:24:15;;;;;;;;;;;22.50;99.90;;;;;;4938971;29;19982;-46
2022/06/24 06:26:41;;;;;;;;;;;22.60;99.90;;;;;;4937831;29;19926;-44
2022/06/24 06:29:06;;;;;;;;;;;22.60;99.90;;;;;;4941848;28;19966;-48
2022/06/24 06:31:32;;;;;;;;;;;22.60;99.90;;;;;;4933460;29;19965;-44
2022/06/24 06:33:58;;;;;;;;;;;22.50;99.90;;;;;;4923067;29;20385;-45
2022/06/24 06:36:23;;;;;;;;;;;22.40;99.90;;;;;;4935166;29;20345;-44
2022/06/24 06:38:49;;;;;;;;;;;22.50;99.90;;;;;;4933971;29;19998;-43
2022/06/24 06:41:15;;;;;;;;;;;22.50;99.90;;;;;;4934446;29;20392;-43
2022/06/24 06:43:41;;;;;;;;;;;22.50;99.90;;;;;;4932614;29;20343;-44
2022/06/24 06:46:12;;;;;;;;;;;22.50;99.90;;;;;;4933425;29;19922;-42
2022/06/24 06:48:38;;;;;;;;;;;22.60;99.90;;;;;;4937132;29;20379;-48
2022/06/24 06:51:04;;;;;;;;;;;22.60;99.90;;;;;;4935635;29;19981;-45
2022/06/24 06:53:29;;;;;;;;;;;22.70;99.90;;;;;;4941742;29;19978;-43
2022/06/24 06:55:55;;;;;;;;;;;22.70;99.90;;;;;;4929180;29;20362;-44
2022/06/24 06:58:24;;;;;;;;;;;22.50;99.90;;;;;;4931791;29;20283;-42
2022/06/24 07:00:50;;;;;;;;;;;22.60;99.90;;;;;;4936120;29;19942;-43
2022/06/24 07:03:15;;;;;;;;;;;22.60;99.90;;;;;;4932705;29;19930;-43
2022/06/24 07:05:44;;;;;;;;;;;22.70;99.90;;;;;;4931751;29;19974;-42
2022/06/24 07:08:11;;;;;;;;;;;22.70;99.90;;;;;;4933799;29;20419;-43
2022/06/24 07:10:37;;;;;;;;;;;22.70;99.90;;;;;;4927565;29;19997;-44
2022/06/24 07:13:02;;;;;;;;;;;22.70;99.90;;;;;;4929240;29;20442;-42
2022/06/24 07:15:28;;;;;;;;;;;22.60;99.90;;;;;;4925876;29;19934;-43
2022/06/24 07:17:53;;;;;;;;;;;22.60;99.90;;;;;;4929740;29;19988;-46
2022/06/24 07:20:19;;;;;;;;;;;22.60;99.90;;;;;;4914982;29;19978;-42
2022/06/24 07:22:44;;;;;;;;;;;22.60;99.90;;;;;;4933599;29;19978;-43
2022/06/24 07:25:10;;;;;;;;;;;22.60;99.90;;;;;;4913120;29;20014;-44
2022/06/24 07:27:36;;;;;;;;;;;22.50;99.90;;;;;;4926424;29;19927;-45
2022/06/24 07:30:05;;;;;;;;;;;22.60;99.90;;;;;;4932834;29;19962;-43
2022/06/24 07:32:30;;;;;;;;;;;22.60;99.90;;;;;;4929984;29;19919;-43
2022/06/24 07:34:56;;;;;;;;;;;22.70;99.90;;;;;;4933351;29;20359;-42
2022/06/24 07:37:21;;;;;;;;;;;22.70;99.90;;;;;;4940144;29;19958;-43
2022/06/24 07:39:47;;;;;;;;;;;22.70;99.90;;;;;;4921950;29;19922;-42
2022/06/24 07:42:12;;;;;;;;;;;22.80;99.90;;;;;;4931090;29;20403;-45
2022/06/24 07:44:42;;;;;;;;;;;22.70;99.90;;;;;;4932724;29;19929;-44
2022/06/24 07:47:09;;;;;;;;;;;22.80;99.90;;;;;;4932037;29;19965;-43
2022/06/24 07:49:34;;;;;;;;;;;22.80;99.90;;;;;;4936774;29;19926;-47
2022/06/24 07:52:00;;;;;;;;;;;22.80;99.90;;;;;;4931807;29;19970;-44
2022/06/24 07:54:25;;;;;;;;;;;22.70;99.90;;;;;;4918268;29;19918;-44
2022/06/24 07:56:57;;;;;;;;;;;22.70;99.90;;;;;;4930886;29;19930;-44
2022/06/24 07:59:24;;;;;;;;;;;22.80;99.90;;;;;;4930849;29;19926;-47
2022/06/24 08:01:50;;;;;;;;;;;22.70;99.90;;;;;;4932705;29;19922;-44
2022/06/24 08:04:15;;;;;;;;;;;22.70;99.90;;;;;;4933276;29;19985;-44
2022/06/24 08:06:46;;;;;;;;;;;22.70;99.90;;;;;;4934197;29;19974;-43
2022/06/24 08:09:15;;;;;;;;;;;22.70;99.90;;;;;;4932642;29;19945;-44
2022/06/24 08:11:41;;;;;;;;;;;22.60;99.90;;;;;;4920382;29;20267;-44
2022/06/24 08:14:06;;;;;;;;;;;22.60;99.90;;;;;;4913989;29;19919;-44
2022/06/24 08:16:32;;;;;;;;;;;22.60;99.90;;;;;;4933698;29;19941;-42
2022/06/24 08:18:58;;;;;;;;;;;22.60;99.90;;;;;;4921960;29;19923;-41
2022/06/24 08:21:23;;;;;;;;;;;22.60;99.90;;;;;;4932488;29;20091;-41
2022/06/24 08:23:49;;;;;;;;;;;22.40;99.90;;;;;;4938320;29;19922;-49
2022/06/24 08:26:16;;;;;;;;;;;22.20;99.90;;;;;;4933751;29;19922;-42
2022/06/24 08:28:41;;;;;;;;;;;21.80;99.90;;;;;;4925854;29;20320;-42
2022/06/24 08:31:07;;;;;;;;;;;21.40;99.90;;;;;;4932170;29;20025;-43
2022/06/24 08:33:33;;;;;;;;;;;21.00;99.90;;;;;;4932267;29;19923;-40
2022/06/24 08:35:58;;;;;;;;;;;20.60;99.90;;;;;;4933812;29;19973;-40
2022/06/24 08:38:24;;;;;;;;;;;20.30;99.90;;;;;;4912024;29;20371;-41
2022/06/24 08:40:52;;;;;;;;;;;20.10;99.90;;;;;;4933500;29;20296;-41
2022/06/24 08:43:20;;;;;;;;;;;19.90;99.90;;;;;;4934337;29;19918;-41
2022/06/24 08:45:46;;;;;;;;;;;19.80;99.90;;;;;;4937156;29;19930;-41
2022/06/24 08:48:12;;;;;;;;;;;19.70;99.90;;;;;;4934794;29;19928;-40
2022/06/24 08:50:37;;;;;;;;;;;19.60;99.90;;;;;;4939622;29;19926;-40
2022/06/24 08:53:07;;;;;;;;;;;19.60;99.90;;;;;;4939549;28;20477;-40
2022/06/24 08:55:36;;;;;;;;;;;19.60;99.90;;;;;;4931832;29;19998;-40
2022/06/24 08:58:09;;;;;;;;;;;19.60;99.90;;;;;;4931249;29;20292;-40
2022/06/24 09:00:35;;;;;;;;;;;19.70;99.90;;;;;;4931266;29;19926;-39
2022/06/24 09:03:01;;;;;;;;;;;19.70;99.90;;;;;;4915182;29;20307;-40
2022/06/24 09:05:27;;;;;;;;;;;19.90;99.90;;;;;;4932586;29;20009;-41
2022/06/24 09:08:12;;;;;;;;;;;20.00;99.90;;;;;;4919631;29;20420;-40
2022/06/24 09:10:39;;;;;;;;;;;20.00;99.90;;;;;;4929076;29;19929;-40
2022/06/24 09:13:05;;;;;;;;;;;20.20;99.90;;;;;;4931033;29;20018;-39
2022/06/24 09:15:31;;;;;;;;;;;20.20;99.90;;;;;;4932235;29;19933;-39
2022/06/24 09:17:57;;;;;;;;;;;20.20;99.90;;;;;;4914860;29;19922;-40
2022/06/24 09:20:26;;;;;;;;;;;20.20;99.90;;;;;;4927625;29;20307;-41
2022/06/24 09:23:21;;;;;;;;;;;20.20;99.90;;;;;;4928840;29;19974;-40
2022/06/24 09:25:47;;;;;;;;;;;20.10;99.90;;;;;;4919809;29;19974;-40
2022/06/24 09:28:20;;;;;;;;;;;20.10;99.90;;;;;;4938641;29;19950;-40
2022/06/24 09:30:46;;;;;;;;;;;20.00;99.90;;;;;;4938964;29;19970;-42
2022/06/24 09:33:17;;;;;;;;;;;20.00;99.90;;;;;;4941582;29;19922;-40
2022/06/24 09:35:43;;;;;;;;;;;19.90;99.90;;;;;;4930898;29;20273;-40
2022/06/24 09:38:08;;;;;;;;;;;20.00;99.90;;;;;;4935173;29;19926;-39
2022/06/24 09:40:34;;;;;;;;;;;19.90;99.90;;;;;;4934925;29;19978;-39
2022/06/24 09:43:04;;;;;;;;;;;19.90;99.90;;;;;;4935914;29;19918;-40
2022/06/24 09:45:46;;;;;;;;;;;19.90;99.90;;;;;;4941153;29;19922;-38
2022/06/24 09:48:12;;;;;;;;;;;19.90;99.90;;;;;;4935031;29;19942;-40
2022/06/24 09:50:40;;;;;;;;;;;19.80;99.90;;;;;;4936548;29;19919;-39
2022/06/24 09:53:05;;;;;;;;;;;19.90;99.90;;;;;;4931230;29;19983;-38
2022/06/24 09:55:31;;;;;;;;;;;19.90;99.90;;;;;;4931104;29;19927;-39
2022/06/24 09:57:59;;;;;;;;;;;20.00;99.90;;;;;;4942518;29;19918;-39
2022/06/24 10:00:43;;;;;;;;;;;20.00;99.90;;;;;;4937579;29;20030;-41
2022/06/24 10:03:11;;;;;;;;;;;20.10;99.90;;;;;;4932872;29;20017;-39
2022/06/24 10:05:39;;;;;;;;;;;20.10;99.90;;;;;;4933495;29;19974;-40
2022/06/24 10:08:06;;;;;;;;;;;20.10;99.90;;;;;;4943813;29;19923;-39
2022/06/24 10:10:34;;;;;;;;;;;20.10;99.90;;;;;;4939004;29;19922;-39
2022/06/24 10:13:03;;;;;;;;;;;20.10;99.90;;;;;;4941308;29;19930;-39
2022/06/24 10:15:28;;;;;;;;;;;20.20;99.90;;;;;;4943276;29;19923;-40
2022/06/24 10:17:55;;;;;;;;;;;20.20;99.90;;;;;;4928585;29;19927;-40
2022/06/24 10:20:21;;;;;;;;;;;20.20;99.90;;;;;;4936284;29;20340;-39
2022/06/24 10:22:49;;;;;;;;;;;20.30;99.90;;;;;;4937318;29;19930;-39
2022/06/24 10:25:16;;;;;;;;;;;20.30;99.90;;;;;;4926554;29;20017;-40
2022/06/24 10:27:57;;;;;;;;;;;20.30;99.90;;;;;;4934963;29;19918;-39
2022/06/24 10:30:35;;;;;;;;;;;20.30;99.90;;;;;;4942983;29;19925;-40
2022/06/24 10:33:10;;;;;;;;;;;20.20;99.90;;;;;;4918651;29;19922;-39
2022/06/24 10:35:55;;;;;;;;;;;20.20;99.90;;;;;;4933712;29;21193;-42
2022/06/24 10:38:22;;;;;;;;;;;20.20;99.90;;;;;;4935536;29;19979;-39
2022/06/24 10:40:48;;;;;;;;;;;20.10;99.90;;;;;;4936287;29;19929;-38
2022/06/24 10:43:13;;;;;;;;;;;20.20;99.90;;;;;;4938986;29;20379;-39
2022/06/24 10:45:39;;;;;;;;;;;20.30;99.90;;;;;;4943008;29;19935;-40
2022/06/24 10:48:05;;;;;;;;;;;20.40;99.90;;;;;;4937266;29;20248;-39
2022/06/24 10:50:30;;;;;;;;;;;20.50;99.90;;;;;;4940778;29;20000;-40
2022/06/24 10:53:00;;;;;;;;;;;20.60;99.90;;;;;;4937732;29;19929;-40
2022/06/24 10:55:30;;;;;;;;;;;20.60;99.90;;;;;;4935196;29;20006;-41
2022/06/24 10:57:57;;;;;;;;;;;20.50;99.90;;;;;;4936260;29;19952;-39
2022/06/24 11:00:24;;;;;;;;;;;20.60;99.90;;;;;;4934914;29;20318;-39
2022/06/24 11:02:52;;;;;;;;;;;20.60;99.90;;;;;;4934743;29;20261;-40
2022/06/24 11:05:25;;;;;;;;;;;20.60;99.90;;;;;;4940886;29;19919;-40
2022/06/24 11:07:51;;;;;;;;;;;20.60;99.90;;;;;;4934455;29;19937;-39
2022/06/24 11:10:18;;;;;;;;;;;20.70;99.90;;;;;;4934226;29;19919;-39
2022/06/24 11:13:02;;;;;;;;;;;20.90;99.90;;;;;;4936853;29;19989;-39
2022/06/24 11:15:37;;;;;;;;;;;21.10;99.90;;;;;;4943700;29;19989;-40
2022/06/24 11:18:06;;;;;;;;;;;21.30;99.90;;;;;;4935593;29;20431;-39
2022/06/24 11:20:34;;;;;;;;;;;21.60;99.90;;;;;;4940111;29;19977;-39
2022/06/24 11:23:00;;;;;;;;;;;21.70;99.90;;;;;;4938233;29;20423;-39
2022/06/24 11:25:25;;;;;;;;;;;21.80;99.90;;;;;;4938029;29;19978;-40
2022/06/24 11:27:51;;;;;;;;;;;21.80;99.90;;;;;;4940814;29;20336;-39
2022/06/24 11:30:17;;;;;;;;;;;21.90;99.90;;;;;;4943986;29;19922;-40
2022/06/24 11:32:50;;;;;;;;;;;22.00;99.90;;;;;;4934371;29;19918;-39
2022/06/24 11:35:16;;;;;;;;;;;22.10;99.90;;;;;;4932928;29;19941;-40
2022/06/24 11:37:43;;;;;;;;;;;22.10;99.90;;;;;;4937423;29;20263;-39
2022/06/24 11:40:09;;;;;;;;;;;22.20;99.90;;;;;;4933808;29;20402;-40
2022/06/24 11:42:34;;;;;;;;;;;22.30;99.90;;;;;;4933858;29;19918;-40
2022/06/24 11:45:00;;;;;;;;;;;22.40;99.90;;;;;;4918688;29;19929;-39
2022/06/24 11:47:30;;;;;;;;;;;22.40;99.90;;;;;;4919593;29;19930;-40
2022/06/24 11:49:55;;;;;;;;;;;22.60;99.90;;;;;;4934435;29;20379;-39
2022/06/24 11:52:21;;;;;;;;;;;22.50;99.90;;;;;;4919255;29;19929;-40
2022/06/24 11:54:46;;;;;;;;;;;22.60;99.90;;;;;;4946721;29;19927;-41
2022/06/24 11:57:12;;;;;;;;;;;22.60;99.90;;;;;;4932790;29;19923;-40
2022/06/24 11:59:38;;;;;;;;;;;22.60;99.90;;;;;;4941800;29;19937;-40
2022/06/24 12:02:04;;;;;;;;;;;22.70;99.90;;;;;;4938298;29;20292;-39
2022/06/24 12:04:31;;;;;;;;;;;22.90;99.90;;;;;;4940356;29;20422;-39
2022/06/24 12:06:56;;;;;;;;;;;23.00;99.90;;;;;;4934238;29;19926;-40
2022/06/24 12:09:22;;;;;;;;;;;23.10;99.90;;;;;;4925262;29;19922;-40
2022/06/24 12:11:49;;;;;;;;;;;23.10;99.90;;;;;;4933201;29;19966;-40
2022/06/24 12:14:15;;;;;;;;;;;23.10;99.90;;;;;;4930231;29;19970;-39
2022/06/24 12:16:55;;;;;;;;;;;23.10;99.90;;;;;;4939488;29;19922;-39
2022/06/24 12:19:20;;;;;;;;;;;23.10;99.90;;;;;;4933609;29;20017;-39
2022/06/24 12:21:46;;;;;;;;;;;23.10;99.90;;;;;;4931596;29;20069;-39
2022/06/24 12:24:22;;;;;;;;;;;23.10;99.90;;;;;;4931961;29;20395;-41
2022/06/24 12:26:50;;;;;;;;;;;23.00;99.90;;;;;;4915980;29;19972;-40
2022/06/24 12:29:23;;;;;;;;;;;22.90;99.90;;;;;;4934034;29;19926;-39
2022/06/24 12:31:52;;;;;;;;;;;22.90;99.90;;;;;;4934906;29;20399;-39
2022/06/24 12:34:46;;;;;;;;;;;22.90;99.90;;;;;;4932275;29;20017;-39
2022/06/24 12:37:12;;;;;;;;;;;22.90;99.90;;;;;;4927814;29;20360;-42
2022/06/24 12:39:39;;;;;;;;;;;22.70;99.90;;;;;;4920403;29;19954;-42
2022/06/24 12:42:06;;;;;;;;;;;22.80;99.90;;;;;;4933469;29;19918;-42
2022/06/24 12:44:41;;;;;;;;;;;22.90;99.90;;;;;;4937258;29;19927;-41
2022/06/24 12:52:43;;;;;;;;;;;23.70;99.00;;;;;;4936191;29;19929;-41
2022/06/24 12:55:12;;;;;;;;;;;24.20;98.60;;;;;;4923085;29;20248;-43
2022/06/24 12:57:37;;;;;;;;;;;24.50;98.00;;;;;;4935347;29;20782;-42
2022/06/24 13:00:07;;;;;;;;;;;24.70;96.80;;;;;;4925767;29;19934;-41
2022/06/24 13:02:33;;;;;;;;;;;24.90;94.00;;;;;;4936274;29;19977;-41
2022/06/24 13:04:58;;;;;;;;;;;25.00;94.00;;;;;;4918085;29;20013;-43
2022/06/24 13:07:24;;;;;;;;;;;25.00;91.80;;;;;;4931086;29;19934;-42
2022/06/24 13:09:49;;;;;;;;;;;25.10;93.90;;;;;;4935242;29;19934;-42
2022/06/24 13:12:15;;;;;;;;;;;25.30;93.70;;;;;;4937094;29;20442;-41
2022/06/24 13:14:40;;;;;;;;;;;25.50;93.00;;;;;;4922371;29;20265;-41
2022/06/24 13:17:06;;;;;;;;;;;25.50;92.90;;;;;;4929813;29;20328;-41
2022/06/24 13:19:32;;;;;;;;;;;25.70;90.60;;;;;;4933611;29;20013;-41
2022/06/24 13:21:57;;;;;;;;;;;25.80;92.00;;;;;;4941602;29;19922;-42
2022/06/24 13:24:23;;;;;;;;;;;25.80;88.80;;;;;;4931368;29;19927;-42
2022/06/24 13:26:49;;;;;;;;;;;25.80;90.40;;;;;;4936254;29;20032;-42
2022/06/24 13:29:14;;;;;;;;;;;25.80;90.30;;;;;;4938800;29;19933;-42
2022/06/24 13:31:41;;;;;;;;;;;25.90;86.50;;;;;;4939530;29;19925;-42
2022/06/24 13:34:07;;;;;;;;;;;26.00;89.90;;;;;;4937345;29;19922;-42
2022/06/24 13:36:32;;;;;;;;;;;26.00;87.20;;;;;;4918848;29;19922;-42
2022/06/24 13:38:58;;;;;;;;;;;26.00;86.70;;;;;;4938187;29;19923;-42
2022/06/24 13:41:24;;;;;;;;;;;26.00;82.50;;;;;;4938909;29;20420;-41
2022/06/24 13:43:49;;;;;;;;;;;26.00;84.50;;;;;;4938710;29;20113;-42
2022/06/24 13:46:15;;;;;;;;;;;26.40;87.00;;;;;;4937189;29;20356;-42
2022/06/24 13:48:40;;;;;;;;;;;26.90;83.10;;;;;;4936142;29;20005;-42
2022/06/24 13:51:06;;;;;;;;;;;27.20;81.90;;;;;;4935542;29;20225;-42
2022/06/24 13:53:32;;;;;;;;;;;27.40;78.90;;;;;;4939317;29;19922;-41
2022/06/24 13:55:57;;;;;;;;;;;27.40;72.90;;;;;;4936112;29;19945;-42
2022/06/24 13:58:23;;;;;;;;;;;27.20;76.60;;;;;;4937042;29;20371;-46
2022/06/24 14:00:49;;;;;;;;;;;27.20;75.90;;;;;;4946361;29;19924;-43
2022/06/24 14:03:14;;;;;;;;;;;27.00;76.40;;;;;;4917882;29;19923;-43
2022/06/24 14:05:40;;;;;;;;;;;26.70;76.70;;;;;;4943938;29;19925;-46
2022/06/24 14:08:05;;;;;;;;;;;26.50;80.20;;;;;;4920852;29;20244;-41
2022/06/24 14:10:31;;;;;;;;;;;26.30;77.30;;;;;;4937102;29;19922;-42
2022/06/24 14:12:57;;;;;;;;;;;26.20;78.90;;;;;;4942187;29;19922;-42
2022/06/24 14:15:23;;;;;;;;;;;26.20;81.10;;;;;;4938732;29;19923;-47
2022/06/24 14:17:48;;;;;;;;;;;26.20;79.70;;;;;;4938918;29;20297;-42
2022/06/24 14:20:14;;;;;;;;;;;26.60;81.40;;;;;;4941156;29;19926;-41
2022/06/24 14:25:24;;;;;;;;;;;26.80;77.70;;;;;;4938552;29;20442;-41
2022/06/24 14:27:50;;;;;;;;;;;26.60;75.80;;;;;;4936190;29;19987;-42
2022/06/24 14:30:16;;;;;;;;;;;26.60;80.20;;;;;;4922205;29;19927;-43
2022/06/24 14:32:41;;;;;;;;;;;26.70;75.90;;;;;;4938669;29;19922;-46